createdAt,value
2018-12-10T00:02:11.365Z,60.98
2018-12-10T00:04:41.811Z,62.03
2018-12-10T00:07:12.466Z,61.65
2018-12-10T00:09:43.101Z,59.51
2018-12-10T00:12:13.834Z,60.84
2018-12-10T00:14:44.377Z,60.15
2018-12-10T00:17:16.021Z,59.53
2018-12-10T00:19:46.664Z,58.21
2018-12-10T00:22:17.345Z,58.03
2018-12-10T00:24:48.001Z,63.27
2018-12-10T00:27:18.540Z,64.85
2018-12-10T00:29:49.182Z,65.25
2018-12-10T00:32:19.881Z,64.49
2018-12-10T00:34:50.550Z,62.67
2018-12-10T00:37:21.014Z,65.56
2018-12-10T00:39:51.387Z,62.00
2018-12-10T00:42:22.006Z,61.28
2018-12-10T00:44:52.453Z,63.01
2018-12-10T00:47:23.460Z,64.10
2018-12-10T00:49:53.980Z,61.72
2018-12-10T00:52:24.217Z,61.04
2018-12-10T00:54:54.744Z,59.83
2018-12-10T00:57:25.919Z,60.93
2018-12-10T00:59:56.516Z,59.72
2018-12-10T01:02:26.931Z,61.67
2018-12-10T01:04:57.347Z,62.16
2018-12-10T01:07:27.603Z,59.36
2018-12-10T01:09:58.169Z,57.47
2018-12-10T01:12:28.477Z,59.21
2018-12-10T01:14:59.044Z,58.92
2018-12-10T01:17:30.133Z,58.66
2018-12-10T01:20:01.310Z,59.76
2018-12-10T01:22:31.834Z,61.32
2018-12-10T01:25:02.312Z,58.89
2018-12-10T01:27:34.084Z,57.79
2018-12-10T01:30:04.400Z,57.02
2018-12-10T01:32:35.142Z,56.41
2018-12-10T01:35:05.456Z,56.58
2018-12-10T01:37:35.707Z,56.29
2018-12-10T01:40:06.385Z,57.12
2018-12-10T01:42:36.751Z,57.30
2018-12-10T01:45:08.368Z,58.28
2018-12-10T01:47:39.231Z,57.12
2018-12-10T01:50:09.844Z,57.03
2018-12-10T01:52:40.362Z,56.99
2018-12-10T01:55:10.688Z,57.30
2018-12-10T01:57:42.180Z,58.00
2018-12-10T02:00:12.765Z,58.45
2018-12-10T02:02:43.109Z,57.14
2018-12-10T02:05:13.984Z,58.39
2018-12-10T02:07:44.902Z,58.13
2018-12-10T02:10:15.316Z,56.53
2018-12-10T02:12:46.058Z,56.65
2018-12-10T02:15:16.524Z,57.43
2018-12-10T02:17:47.303Z,59.33
2018-12-10T02:20:18.093Z,59.47
2018-12-10T02:22:48.710Z,58.12
2018-12-10T02:25:19.377Z,57.88
2018-12-10T02:27:49.928Z,60.77
2018-12-10T02:30:21.196Z,59.89
2018-12-10T02:32:52.936Z,60.05
2018-12-10T02:35:23.258Z,59.11
2018-12-10T02:37:53.670Z,57.67
2018-12-10T02:40:25.000Z,60.94
2018-12-10T02:42:55.894Z,58.25
2018-12-10T02:45:26.472Z,57.33
2018-12-10T02:47:57.892Z,58.23
2018-12-10T02:50:28.760Z,56.51
2018-12-10T02:53:00.271Z,56.23
2018-12-10T02:55:30.750Z,55.70
2018-12-10T02:58:02.209Z,58.09
2018-12-10T03:00:33.230Z,57.09
2018-12-10T03:03:04.260Z,60.80
2018-12-10T03:05:34.963Z,61.63
2018-12-10T03:08:06.495Z,60.35
2018-12-10T03:10:36.876Z,59.91
2018-12-10T03:13:07.756Z,60.56
2018-12-10T03:15:38.215Z,61.62
2018-12-10T03:18:09.427Z,60.78
2018-12-10T03:20:40.429Z,61.93
2018-12-10T03:23:11.147Z,61.63
2018-12-10T03:25:41.754Z,59.70
2018-12-10T03:28:13.720Z,59.17
2018-12-10T03:30:44.230Z,60.38
2018-12-10T03:33:15.593Z,58.40
2018-12-10T03:35:46.735Z,58.63
2018-12-10T03:38:17.240Z,59.62
2018-12-10T03:40:48.225Z,60.03
2018-12-10T03:43:19.133Z,59.56
2018-12-10T03:45:49.986Z,59.15
2018-12-10T03:48:21.524Z,59.86
2018-12-10T03:50:52.371Z,59.12
2018-12-10T03:53:23.510Z,59.76
2018-12-10T03:55:54.453Z,59.11
2018-12-10T03:58:26.172Z,58.98
2018-12-10T04:00:56.964Z,59.42
2018-12-10T04:03:27.576Z,60.55
2018-12-10T04:05:58.192Z,60.34
2018-12-10T04:08:29.935Z,60.53
2018-12-10T04:11:00.802Z,60.09
2018-12-10T04:13:31.434Z,60.19
2018-12-10T04:16:02.044Z,59.87
2018-12-10T04:18:34.194Z,60.04
2018-12-10T04:21:04.811Z,59.27
2018-12-10T04:23:35.753Z,60.28
2018-12-10T04:26:06.112Z,59.79
2018-12-10T04:28:38.140Z,59.82
2018-12-10T04:31:08.607Z,60.22
2018-12-10T04:33:38.978Z,60.45
2018-12-10T04:36:09.999Z,61.41
2018-12-10T04:38:40.660Z,60.24
2018-12-10T04:41:11.518Z,60.51
2018-12-10T04:43:42.735Z,59.75
2018-12-10T04:46:13.689Z,60.55
2018-12-10T04:48:44.474Z,60.63
2018-12-10T04:51:14.835Z,62.17
2018-12-10T04:53:45.640Z,63.93
2018-12-10T04:56:16.841Z,63.82
2018-12-10T04:58:48.534Z,63.26
2018-12-10T05:01:18.848Z,62.80
2018-12-10T05:03:49.837Z,62.80
2018-12-10T05:06:20.606Z,61.94
2018-12-10T05:08:51.624Z,64.79
2018-12-10T05:11:22.871Z,66.79
2018-12-10T05:13:53.267Z,65.71
2018-12-10T05:16:23.831Z,64.80
2018-12-10T05:18:55.482Z,64.61
2018-12-10T05:21:26.741Z,63.28
2018-12-10T05:23:57.343Z,61.55
2018-12-10T05:26:28.315Z,61.33
2018-12-10T05:28:59.636Z,62.16
2018-12-10T05:31:30.540Z,61.66
2018-12-10T05:34:01.156Z,61.28
2018-12-10T05:36:31.682Z,60.34
2018-12-10T05:39:02.150Z,59.25
2018-12-10T05:41:33.002Z,58.77
2018-12-10T05:44:04.105Z,59.79
2018-12-10T05:46:35.497Z,60.00
2018-12-10T05:49:21.605Z,60.27
2018-12-10T05:51:51.898Z,60.40
2018-12-10T05:54:22.151Z,59.00
2018-12-10T05:56:53.708Z,59.40
2018-12-10T05:59:24.031Z,58.74
2018-12-10T06:01:54.479Z,61.30
2018-12-10T06:04:24.514Z,57.42
2018-12-10T06:06:55.053Z,59.15
2018-12-10T06:09:25.311Z,58.72
2018-12-10T06:11:55.623Z,59.12
2018-12-10T06:14:26.081Z,59.63
2018-12-10T06:16:57.065Z,59.41
2018-12-10T06:19:27.356Z,58.30
2018-12-10T06:21:58.065Z,58.75
2018-12-10T06:24:28.068Z,58.70
2018-12-10T06:26:59.203Z,59.91
2018-12-10T06:29:29.789Z,60.36
2018-12-10T06:32:00.386Z,59.03
2018-12-10T06:34:30.438Z,58.94
2018-12-10T06:37:01.082Z,60.69
2018-12-10T06:39:31.109Z,60.99
2018-12-10T06:42:01.394Z,60.37
2018-12-10T06:44:31.701Z,59.79
2018-12-10T06:47:02.716Z,61.47
2018-12-10T06:49:33.348Z,61.44
2018-12-10T06:52:03.489Z,60.32
2018-12-10T06:54:33.585Z,59.85
2018-12-10T06:57:04.481Z,59.48
2018-12-10T06:59:34.943Z,59.25
2018-12-10T07:02:05.380Z,58.21
2018-12-10T07:04:35.640Z,57.87
2018-12-10T07:07:06.817Z,59.33
2018-12-10T07:09:37.081Z,60.06
2018-12-10T07:12:07.499Z,60.17
2018-12-10T07:14:37.961Z,59.27
2018-12-10T07:17:09.132Z,59.86
2018-12-10T07:19:39.359Z,59.86
2018-12-10T07:22:09.671Z,59.66
2018-12-10T07:24:39.647Z,59.86
2018-12-10T07:27:10.640Z,60.50
2018-12-10T07:29:40.802Z,60.86
2018-12-10T07:32:11.114Z,61.40
2018-12-10T07:34:41.498Z,60.72
2018-12-10T07:37:12.159Z,60.30
2018-12-10T07:39:42.983Z,60.76
2018-12-10T07:42:13.192Z,62.06
2018-12-10T07:44:43.527Z,62.50
2018-12-10T07:47:14.289Z,61.61
2018-12-10T07:49:44.826Z,63.19
2018-12-10T07:52:15.164Z,61.62
2018-12-10T07:54:45.672Z,61.66
2018-12-10T07:57:16.263Z,60.84
2018-12-10T07:59:46.392Z,61.44
2018-12-10T08:02:16.488Z,62.78
2018-12-10T08:04:46.823Z,61.76
2018-12-10T08:07:17.675Z,62.37
2018-12-10T08:09:47.800Z,62.94
2018-12-10T08:12:18.156Z,61.51
2018-12-10T08:14:48.882Z,62.28
2018-12-10T08:17:20.150Z,62.00
2018-12-10T08:19:50.259Z,63.08
2018-12-10T08:22:20.771Z,60.80
2018-12-10T08:24:51.099Z,60.62
2018-12-10T08:27:21.840Z,62.26
2018-12-10T08:29:52.363Z,62.05
2018-12-10T08:32:22.659Z,63.12
2018-12-10T08:34:53.724Z,65.53
2018-12-10T08:37:24.238Z,65.29
2018-12-10T08:39:54.534Z,66.14
2018-12-10T08:42:25.113Z,65.31
2018-12-10T08:44:55.608Z,65.12
2018-12-10T08:47:27.390Z,64.22
2018-12-10T08:49:57.972Z,65.55
2018-12-10T08:52:28.836Z,64.02
2018-12-10T08:54:59.544Z,62.15
2018-12-10T08:57:30.183Z,61.68
2018-12-10T09:00:00.882Z,61.09
2018-12-10T09:02:31.310Z,60.38
2018-12-10T09:05:01.793Z,62.11
2018-12-10T09:07:32.786Z,60.55
2018-12-10T09:10:03.023Z,62.04
2018-12-10T09:12:33.668Z,62.81
2018-12-10T09:15:04.274Z,62.77
2018-12-10T09:17:35.499Z,63.07
2018-12-10T09:20:06.244Z,63.21
2018-12-10T09:22:37.434Z,62.87
2018-12-10T09:25:08.296Z,62.50
2018-12-10T09:27:39.179Z,62.92
2018-12-10T09:30:12.519Z,63.94
2018-12-10T09:32:43.011Z,63.92
2018-12-10T09:35:13.574Z,64.22
2018-12-10T09:37:44.743Z,64.61
2018-12-10T09:40:14.995Z,64.02
2018-12-10T09:42:45.557Z,64.40
2018-12-10T09:45:15.955Z,63.84
2018-12-10T09:47:47.957Z,63.81
2018-12-10T09:50:18.550Z,64.29
2018-12-10T09:52:49.184Z,64.35
2018-12-10T09:55:19.938Z,64.74
2018-12-10T09:57:51.096Z,65.21
2018-12-10T10:00:21.576Z,64.52
2018-12-10T10:02:52.094Z,64.65
2018-12-10T10:05:22.406Z,64.98
2018-12-10T10:07:54.050Z,64.95
2018-12-10T10:10:24.648Z,66.08
2018-12-10T10:12:55.250Z,66.19
2018-12-10T10:15:25.879Z,65.47
2018-12-10T10:17:58.830Z,65.79
2018-12-10T10:20:29.240Z,65.62
2018-12-10T10:22:59.714Z,65.45
2018-12-10T10:25:30.298Z,66.64
2018-12-10T10:28:01.612Z,65.50
2018-12-10T10:30:32.243Z,63.87
2018-12-10T10:33:02.667Z,65.31
2018-12-10T10:35:34.142Z,65.41
2018-12-10T10:38:05.877Z,65.99
2018-12-10T10:40:36.687Z,64.82
2018-12-10T10:43:07.194Z,65.53
2018-12-10T10:45:38.816Z,65.84
2018-12-10T10:48:10.768Z,65.67
2018-12-10T10:50:40.926Z,65.58
2018-12-10T10:53:11.100Z,66.44
2018-12-10T10:55:42.169Z,65.26
2018-12-10T10:58:13.912Z,64.78
2018-12-10T11:00:49.690Z,64.83
2018-12-10T11:03:25.339Z,65.42
2018-12-10T11:05:55.922Z,65.90
2018-12-10T11:08:27.143Z,66.88
2018-12-10T11:10:57.953Z,67.78
2018-12-10T11:13:28.484Z,67.94
2018-12-10T11:15:59.027Z,67.61
2018-12-10T11:18:30.967Z,68.48
2018-12-10T11:21:01.592Z,69.98
2018-12-10T11:23:32.372Z,68.83
2018-12-10T11:26:03.267Z,70.48
2018-12-10T11:28:34.073Z,69.51
2018-12-10T11:31:04.755Z,68.34
2018-12-10T11:33:35.975Z,67.74
2018-12-10T11:36:07.032Z,67.15
2018-12-10T11:38:37.778Z,66.89
2018-12-10T11:41:08.336Z,66.31
2018-12-10T11:43:39.282Z,65.05
2018-12-10T11:46:10.759Z,67.10
2018-12-10T11:48:41.947Z,67.16
2018-12-10T11:51:12.482Z,65.30
2018-12-10T11:53:42.968Z,68.41
2018-12-10T11:56:14.087Z,66.36
2018-12-10T11:58:44.884Z,67.30
2018-12-10T12:01:15.623Z,66.83
2018-12-10T12:03:47.113Z,65.99
2018-12-10T12:06:17.939Z,65.08
2018-12-10T12:08:48.740Z,65.38
2018-12-10T12:11:20.214Z,65.46
2018-12-10T12:13:51.335Z,65.34
2018-12-10T12:16:22.120Z,65.22
2018-12-10T12:18:53.636Z,66.15
2018-12-10T12:21:24.559Z,65.73
2018-12-10T12:23:56.136Z,66.42
2018-12-10T12:26:27.155Z,66.37
2018-12-10T12:28:58.321Z,65.68
2018-12-10T12:31:29.163Z,65.84
2018-12-10T12:34:00.281Z,65.63
2018-12-10T12:36:30.803Z,65.27
2018-12-10T12:39:02.320Z,64.92
2018-12-10T12:41:32.945Z,64.17
2018-12-10T12:44:03.215Z,63.86
2018-12-10T12:46:33.982Z,62.89
2018-12-10T12:49:05.540Z,63.08
2018-12-10T12:51:36.577Z,63.47
2018-12-10T12:54:07.105Z,63.44
2018-12-10T12:56:37.785Z,62.13
2018-12-10T12:59:08.990Z,61.63
2018-12-10T13:01:39.796Z,60.90
2018-12-10T13:04:10.427Z,61.20
2018-12-10T13:06:41.023Z,59.96
2018-12-10T13:09:11.783Z,60.63
2018-12-10T13:11:42.463Z,60.45
2018-12-10T13:14:13.203Z,59.54
2018-12-10T13:16:49.394Z,58.69
2018-12-10T13:19:16.748Z,58.32
2018-12-10T13:21:47.949Z,57.77
2018-12-10T13:24:18.522Z,57.90
2018-12-10T13:26:48.984Z,57.84
2018-12-10T13:29:20.546Z,58.02
2018-12-10T13:31:51.460Z,59.14
2018-12-10T13:34:22.347Z,60.49
2018-12-10T13:36:54.195Z,61.77
2018-12-10T13:39:26.219Z,62.11
2018-12-10T13:41:56.637Z,61.75
2018-12-10T13:44:27.684Z,60.29
2018-12-10T13:46:58.305Z,60.07
2018-12-10T13:49:29.603Z,58.76
2018-12-10T13:52:00.522Z,59.47
2018-12-10T13:54:31.532Z,60.88
2018-12-10T13:57:02.345Z,60.90
2018-12-10T13:59:33.091Z,62.01
2018-12-10T14:02:04.071Z,61.46
2018-12-10T14:04:41.902Z,62.42
2018-12-10T14:07:12.696Z,60.88
2018-12-10T14:09:44.319Z,62.55
2018-12-10T14:12:15.608Z,61.89
2018-12-10T14:14:46.529Z,60.62
2018-12-10T14:17:17.653Z,60.80
2018-12-10T14:19:48.206Z,59.43
2018-12-10T14:22:19.200Z,58.61
2018-12-10T14:24:50.142Z,58.24
2018-12-10T14:27:20.931Z,57.75
2018-12-10T14:29:52.112Z,58.06
2018-12-10T14:32:23.065Z,57.60
2018-12-10T14:34:53.415Z,58.12
2018-12-10T14:37:24.180Z,58.03
2018-12-10T14:39:55.160Z,58.85
2018-12-10T14:42:26.328Z,60.80
2018-12-10T14:44:57.110Z,60.74
2018-12-10T14:47:27.787Z,61.85
2018-12-10T14:49:59.259Z,61.34
2018-12-10T14:52:30.285Z,61.43
2018-12-10T14:55:01.465Z,62.64
2018-12-10T14:57:32.403Z,61.57
2018-12-10T15:00:04.453Z,61.25
2018-12-10T15:02:35.058Z,61.95
2018-12-10T15:05:06.142Z,66.12
2018-12-10T15:07:36.825Z,64.14
2018-12-10T15:10:09.047Z,63.13
2018-12-10T15:12:39.584Z,63.37
2018-12-10T15:15:11.295Z,62.77
2018-12-10T15:17:42.216Z,63.32
2018-12-10T15:20:14.929Z,64.84
2018-12-10T15:22:45.689Z,63.33
2018-12-10T15:25:16.443Z,63.21
2018-12-10T15:27:47.333Z,63.68
2018-12-10T15:30:18.186Z,62.44
2018-12-10T15:32:48.883Z,63.34
2018-12-10T15:35:20.314Z,62.76
2018-12-10T15:37:51.328Z,61.54
2018-12-10T15:40:23.052Z,60.20
2018-12-10T15:42:53.898Z,59.72
2018-12-10T15:45:24.251Z,59.37
2018-12-10T15:47:55.141Z,64.30
2018-12-10T15:50:26.347Z,59.07
2018-12-10T15:52:58.252Z,59.29
2018-12-10T15:55:28.771Z,60.18
2018-12-10T15:57:59.389Z,60.25
2018-12-10T16:00:31.156Z,62.07
2018-12-10T16:03:01.812Z,61.85
2018-12-10T16:05:32.331Z,62.18
2018-12-10T16:08:02.921Z,63.28
2018-12-10T16:10:34.613Z,63.68
2018-12-10T16:13:05.751Z,65.44
2018-12-10T16:15:36.575Z,66.10
2018-12-10T16:18:07.121Z,65.63
2018-12-10T16:20:39.019Z,65.63
2018-12-10T16:23:10.047Z,65.38
2018-12-10T16:25:40.761Z,66.28
2018-12-10T16:28:10.812Z,65.78
2018-12-10T16:30:43.663Z,64.81
2018-12-10T16:33:14.959Z,65.17
2018-12-10T16:35:46.965Z,64.79
2018-12-10T16:38:17.697Z,63.22
2018-12-10T16:40:49.705Z,61.51
2018-12-10T16:43:20.138Z,61.95
2018-12-10T16:45:51.179Z,63.75
2018-12-10T16:48:21.867Z,63.30
2018-12-10T16:50:53.249Z,65.11
2018-12-10T16:53:24.257Z,62.29
2018-12-10T16:55:54.987Z,62.44
2018-12-10T16:58:25.308Z,65.40
2018-12-10T17:00:57.039Z,67.36
2018-12-10T17:03:28.403Z,64.74
2018-12-10T17:05:58.920Z,63.41
2018-12-10T17:08:29.649Z,64.04
2018-12-10T17:11:01.195Z,64.82
2018-12-10T17:13:31.856Z,64.87
2018-12-10T17:16:03.003Z,62.22
2018-12-10T17:18:33.682Z,63.32
2018-12-10T17:21:05.823Z,63.07
2018-12-10T17:23:36.580Z,63.92
2018-12-10T17:26:08.314Z,63.44
2018-12-10T17:28:38.959Z,64.67
2018-12-10T17:31:10.307Z,63.45
2018-12-10T17:33:40.737Z,63.64
2018-12-10T17:36:11.279Z,64.14
2018-12-10T17:38:41.835Z,64.50
2018-12-10T17:41:13.531Z,66.65
2018-12-10T17:43:44.139Z,66.61
2018-12-10T17:46:15.045Z,66.01
2018-12-10T17:48:45.345Z,65.97
2018-12-10T17:51:16.304Z,64.54
2018-12-10T17:53:47.212Z,68.98
2018-12-10T17:56:18.138Z,65.28
2018-12-10T17:58:48.548Z,63.25
2018-12-10T18:01:19.488Z,68.58
2018-12-10T18:03:50.057Z,61.75
2018-12-10T18:06:20.675Z,61.86
2018-12-10T18:08:51.128Z,62.02
2018-12-10T18:11:21.916Z,62.58
2018-12-10T18:13:52.293Z,61.32
2018-12-10T18:16:22.661Z,62.49
2018-12-10T18:18:53.172Z,62.67
2018-12-10T18:21:25.174Z,62.19
2018-12-10T18:23:55.835Z,61.76
2018-12-10T18:26:26.665Z,61.49
2018-12-10T18:28:57.207Z,61.14
2018-12-10T18:31:28.375Z,59.74
2018-12-10T18:33:59.510Z,60.00
2018-12-10T18:36:30.239Z,59.87
2018-12-10T18:39:00.804Z,60.39
2018-12-10T18:41:31.992Z,60.44
2018-12-10T18:44:02.487Z,60.18
2018-12-10T18:46:32.982Z,60.60
2018-12-10T18:49:03.370Z,59.33
2018-12-10T18:51:34.470Z,64.45
2018-12-10T18:54:04.947Z,59.87
2018-12-10T18:56:35.590Z,59.73
2018-12-10T18:59:05.976Z,59.75
2018-12-10T19:01:37.336Z,62.31
2018-12-10T19:04:08.102Z,59.56
2018-12-10T19:06:38.719Z,60.63
2018-12-10T19:09:09.722Z,60.84
2018-12-10T19:11:40.595Z,65.68
2018-12-10T19:14:11.099Z,61.56
2018-12-10T19:16:41.324Z,61.78
2018-12-10T19:19:11.646Z,61.64
2018-12-10T19:21:43.131Z,61.29
2018-12-10T19:24:13.510Z,60.15
2018-12-10T19:26:44.107Z,60.35
2018-12-10T19:29:14.613Z,60.39
2018-12-10T19:31:46.081Z,61.22
2018-12-10T19:34:16.788Z,61.02
2018-12-10T19:36:47.324Z,60.25
2018-12-10T19:39:17.854Z,60.50
2018-12-10T19:41:48.626Z,60.97
2018-12-10T19:44:19.100Z,60.14
2018-12-10T19:46:49.948Z,59.76
2018-12-10T19:49:20.600Z,61.28
2018-12-10T19:51:52.630Z,60.51
2018-12-10T19:54:23.034Z,59.47
2018-12-10T19:56:53.561Z,60.30
2018-12-10T19:59:24.092Z,60.86
2018-12-10T20:01:54.952Z,61.68
2018-12-10T20:04:25.738Z,63.05
2018-12-10T20:07:10.665Z,61.99
2018-12-10T20:09:40.849Z,61.85
2018-12-10T20:12:11.606Z,61.12
2018-12-10T20:14:41.901Z,60.20
2018-12-10T20:17:12.264Z,59.48
2018-12-10T20:19:42.875Z,58.16
2018-12-10T20:22:13.795Z,58.19
2018-12-10T20:24:44.140Z,60.36
2018-12-10T20:27:15.966Z,61.02
2018-12-10T20:29:46.444Z,62.08
2018-12-10T20:32:17.180Z,61.69
2018-12-10T20:34:48.101Z,61.96
2018-12-10T20:37:18.966Z,63.12
2018-12-10T20:39:49.580Z,62.61
2018-12-10T20:42:20.129Z,63.13
2018-12-10T20:44:51.028Z,64.27
2018-12-10T20:47:21.653Z,62.04
2018-12-10T20:49:52.091Z,61.63
2018-12-10T20:52:23.891Z,61.66
2018-12-10T20:54:54.511Z,61.89
2018-12-10T20:57:25.241Z,61.42
2018-12-10T20:59:55.773Z,60.71
2018-12-10T21:02:29.199Z,62.03
2018-12-10T21:04:58.943Z,64.65
2018-12-10T21:07:29.676Z,64.05
2018-12-10T21:10:00.290Z,64.10
2018-12-10T21:12:31.126Z,65.07
2018-12-10T21:15:01.700Z,65.74
2018-12-10T21:17:32.441Z,66.42
2018-12-10T21:20:02.928Z,66.59
2018-12-10T21:22:33.381Z,65.78
2018-12-10T21:25:04.175Z,63.79
2018-12-10T21:27:34.922Z,62.26
2018-12-10T21:30:05.763Z,63.27
2018-12-10T21:32:37.361Z,64.83
2018-12-10T21:35:07.934Z,63.43
2018-12-10T21:37:38.273Z,62.46
2018-12-10T21:40:08.698Z,61.28
2018-12-10T21:42:40.056Z,61.60
2018-12-10T21:45:10.965Z,62.67
2018-12-10T21:47:41.060Z,62.55
2018-12-10T21:50:11.398Z,60.87
2018-12-10T21:52:42.147Z,60.33
2018-12-10T21:55:16.899Z,59.15
2018-12-10T21:57:45.697Z,60.06
2018-12-10T22:00:16.525Z,61.89
2018-12-10T22:02:48.133Z,60.81
2018-12-10T22:05:18.840Z,61.56
2018-12-10T22:07:49.574Z,63.36
2018-12-10T22:10:20.201Z,61.95
2018-12-10T22:12:51.210Z,61.33
2018-12-10T22:15:21.743Z,61.96
2018-12-10T22:17:52.293Z,61.18
2018-12-10T22:20:22.880Z,60.37
2018-12-10T22:22:54.403Z,59.57
2018-12-10T22:25:24.870Z,60.90
2018-12-10T22:27:55.432Z,65.21
2018-12-10T22:30:26.645Z,61.94
2018-12-10T22:32:58.394Z,63.81
2018-12-10T22:35:30.052Z,60.12
2018-12-10T22:38:00.703Z,59.54
2018-12-10T22:40:31.584Z,66.20
2018-12-10T22:43:03.201Z,58.08
2018-12-10T22:45:34.360Z,62.24
2018-12-10T22:48:05.785Z,60.17
2018-12-10T22:50:36.394Z,59.73
2018-12-10T22:53:07.294Z,60.12
2018-12-10T22:55:38.201Z,60.15
2018-12-10T22:58:08.643Z,59.78
2018-12-10T23:00:47.768Z,60.82
2018-12-10T23:03:18.687Z,58.86
2018-12-10T23:05:51.187Z,58.16
2018-12-10T23:08:22.120Z,58.82
2018-12-10T23:10:52.534Z,61.72
2018-12-10T23:13:23.656Z,60.33
2018-12-10T23:15:55.010Z,60.39
2018-12-10T23:18:25.336Z,60.55
2018-12-10T23:20:55.932Z,59.38
2018-12-10T23:23:27.588Z,62.65
2018-12-10T23:25:58.514Z,62.22
2018-12-10T23:28:29.339Z,61.19
2018-12-10T23:31:00.281Z,58.90
2018-12-10T23:33:32.590Z,58.13
2018-12-10T23:36:03.426Z,58.50
2018-12-10T23:38:34.073Z,59.51
2018-12-10T23:41:04.849Z,60.43
2018-12-10T23:43:35.836Z,62.22
2018-12-10T23:46:06.623Z,58.36
2018-12-10T23:48:37.240Z,61.41
2018-12-10T23:51:08.696Z,59.92
2018-12-10T23:53:39.454Z,58.53
2018-12-10T23:56:10.141Z,59.00
2018-12-10T23:58:40.776Z,60.70
